sensor_id;sensor_type;location;lat;lon;timestamp;P1;durP1;ratioP1;P2;durP2;ratioP2
51475;SDS011;37554;50.362;7.568;2022-11-25T00:00:17;2.58;;;1.58;;
51475;SDS011;37554;50.362;7.568;2022-11-25T00:02:43;2.70;;;1.55;;
51475;SDS011;37554;50.362;7.568;2022-11-25T00:05:09;3.38;;;1.48;;
51475;SDS011;37554;50.362;7.568;2022-11-25T00:07:35;2.70;;;1.75;;
51475;SDS011;37554;50.362;7.568;2022-11-25T00:10:01;3.05;;;1.60;;
51475;SDS011;37554;50.362;7.568;2022-11-25T00:12:27;3.03;;;1.45;;
51475;SDS011;37554;50.362;7.568;2022-11-25T00:14:53;3.40;;;1.98;;
51475;SDS011;37554;50.362;7.568;2022-11-25T00:17:19;3.45;;;1.83;;
51475;SDS011;37554;50.362;7.568;2022-11-25T00:19:44;3.83;;;1.63;;
51475;SDS011;37554;50.362;7.568;2022-11-25T00:22:12;3.60;;;1.60;;
51475;SDS011;37554;50.362;7.568;2022-11-25T00:24:38;2.95;;;1.60;;
51475;SDS011;37554;50.362;7.568;2022-11-25T00:27:04;3.70;;;1.60;;
51475;SDS011;37554;50.362;7.568;2022-11-25T00:29:30;3.40;;;1.50;;
51475;SDS011;37554;50.362;7.568;2022-11-25T00:31:56;2.50;;;1.42;;
51475;SDS011;37554;50.362;7.568;2022-11-25T00:34:21;2.97;;;1.73;;
51475;SDS011;37554;50.362;7.568;2022-11-25T00:36:47;2.75;;;1.73;;
51475;SDS011;37554;50.362;7.568;2022-11-25T00:39:14;4.03;;;2.35;;
51475;SDS011;37554;50.362;7.568;2022-11-25T00:41:41;4.03;;;2.08;;
51475;SDS011;37554;50.362;7.568;2022-11-25T00:44:26;3.92;;;2.55;;
51475;SDS011;37554;50.362;7.568;2022-11-25T00:47:10;6.07;;;2.70;;
51475;SDS011;37554;50.362;7.568;2022-11-25T00:49:39;3.88;;;2.50;;
51475;SDS011;37554;50.362;7.568;2022-11-25T00:52:07;4.70;;;2.05;;
51475;SDS011;37554;50.362;7.568;2022-11-25T00:54:34;7.10;;;2.95;;
51475;SDS011;37554;50.362;7.568;2022-11-25T00:56:59;7.10;;;2.45;;
51475;SDS011;37554;50.362;7.568;2022-11-25T00:59:25;5.38;;;2.30;;
51475;SDS011;37554;50.362;7.568;2022-11-25T01:01:52;5.57;;;2.70;;
51475;SDS011;37554;50.362;7.568;2022-11-25T01:04:18;5.03;;;2.70;;
51475;SDS011;37554;50.362;7.568;2022-11-25T01:06:43;4.88;;;2.30;;
51475;SDS011;37554;50.362;7.568;2022-11-25T01:09:10;4.97;;;2.67;;
51475;SDS011;37554;50.362;7.568;2022-11-25T01:11:36;4.18;;;2.60;;
51475;SDS011;37554;50.362;7.568;2022-11-25T01:14:02;5.47;;;2.80;;
51475;SDS011;37554;50.362;7.568;2022-11-25T01:16:28;5.75;;;2.50;;
51475;SDS011;37554;50.362;7.568;2022-11-25T01:18:56;3.75;;;2.53;;
51475;SDS011;37554;50.362;7.568;2022-11-25T01:21:24;4.63;;;2.45;;
51475;SDS011;37554;50.362;7.568;2022-11-25T01:23:50;5.03;;;2.60;;
51475;SDS011;37554;50.362;7.568;2022-11-25T01:26:19;3.78;;;2.25;;
51475;SDS011;37554;50.362;7.568;2022-11-25T01:28:47;3.67;;;1.92;;
51475;SDS011;37554;50.362;7.568;2022-11-25T01:31:15;3.35;;;2.20;;
51475;SDS011;37554;50.362;7.568;2022-11-25T01:33:42;5.63;;;2.28;;
51475;SDS011;37554;50.362;7.568;2022-11-25T01:36:10;4.55;;;2.33;;
51475;SDS011;37554;50.362;7.568;2022-11-25T01:38:37;4.18;;;2.13;;
51475;SDS011;37554;50.362;7.568;2022-11-25T01:41:03;2.50;;;1.75;;
51475;SDS011;37554;50.362;7.568;2022-11-25T01:43:29;3.25;;;2.08;;
51475;SDS011;37554;50.362;7.568;2022-11-25T01:46:11;3.53;;;2.08;;
51475;SDS011;37554;50.362;7.568;2022-11-25T01:48:48;4.25;;;2.20;;
51475;SDS011;37554;50.362;7.568;2022-11-25T01:51:24;3.40;;;1.90;;
51475;SDS011;37554;50.362;7.568;2022-11-25T01:54:10;4.10;;;2.17;;
51475;SDS011;37554;50.362;7.568;2022-11-25T01:56:40;3.78;;;1.92;;
51475;SDS011;37554;50.362;7.568;2022-11-25T01:59:19;4.13;;;2.35;;
51475;SDS011;37554;50.362;7.568;2022-11-25T02:01:45;4.47;;;2.10;;
51475;SDS011;37554;50.362;7.568;2022-11-25T02:04:11;3.05;;;1.88;;
51475;SDS011;37554;50.362;7.568;2022-11-25T02:06:48;4.35;;;1.90;;
51475;SDS011;37554;50.362;7.568;2022-11-25T02:09:17;3.55;;;1.77;;
51475;SDS011;37554;50.362;7.568;2022-11-25T02:11:45;4.40;;;2.22;;
51475;SDS011;37554;50.362;7.568;2022-11-25T02:14:15;3.38;;;2.08;;
51475;SDS011;37554;50.362;7.568;2022-11-25T02:16:43;4.47;;;2.13;;
51475;SDS011;37554;50.362;7.568;2022-11-25T02:19:12;4.43;;;2.10;;
51475;SDS011;37554;50.362;7.568;2022-11-25T02:21:49;4.55;;;2.08;;
51475;SDS011;37554;50.362;7.568;2022-11-25T02:24:29;4.10;;;1.83;;
51475;SDS011;37554;50.362;7.568;2022-11-25T02:27:02;4.53;;;2.38;;
51475;SDS011;37554;50.362;7.568;2022-11-25T02:29:27;3.40;;;1.95;;
51475;SDS011;37554;50.362;7.568;2022-11-25T02:31:53;3.20;;;1.70;;
51475;SDS011;37554;50.362;7.568;2022-11-25T02:34:19;4.65;;;2.35;;
51475;SDS011;37554;50.362;7.568;2022-11-25T02:36:44;4.03;;;1.95;;
51475;SDS011;37554;50.362;7.568;2022-11-25T02:39:10;4.18;;;1.77;;
51475;SDS011;37554;50.362;7.568;2022-11-25T02:41:38;4.75;;;1.75;;
51475;SDS011;37554;50.362;7.568;2022-11-25T02:44:08;2.85;;;1.80;;
51475;SDS011;37554;50.362;7.568;2022-11-25T02:46:34;3.08;;;1.83;;
51475;SDS011;37554;50.362;7.568;2022-11-25T02:49:00;3.78;;;1.83;;
51475;SDS011;37554;50.362;7.568;2022-11-25T02:51:27;2.70;;;1.70;;
51475;SDS011;37554;50.362;7.568;2022-11-25T02:53:55;3.65;;;1.65;;
51475;SDS011;37554;50.362;7.568;2022-11-25T02:56:21;2.97;;;1.90;;
51475;SDS011;37554;50.362;7.568;2022-11-25T02:58:49;4.20;;;2.03;;
51475;SDS011;37554;50.362;7.568;2022-11-25T03:01:15;2.75;;;1.73;;
51475;SDS011;37554;50.362;7.568;2022-11-25T03:03:41;2.63;;;1.60;;
51475;SDS011;37554;50.362;7.568;2022-11-25T03:06:06;2.60;;;1.95;;
51475;SDS011;37554;50.362;7.568;2022-11-25T03:08:33;2.33;;;1.60;;
51475;SDS011;37554;50.362;7.568;2022-11-25T03:10:59;4.03;;;1.83;;
51475;SDS011;37554;50.362;7.568;2022-11-25T03:13:24;3.95;;;1.92;;
51475;SDS011;37554;50.362;7.568;2022-11-25T03:15:50;2.85;;;1.90;;
51475;SDS011;37554;50.362;7.568;2022-11-25T03:18:16;2.85;;;1.55;;
51475;SDS011;37554;50.362;7.568;2022-11-25T03:20:41;2.67;;;1.88;;
51475;SDS011;37554;50.362;7.568;2022-11-25T03:23:07;3.15;;;1.52;;
51475;SDS011;37554;50.362;7.568;2022-11-25T03:25:33;2.05;;;1.25;;
51475;SDS011;37554;50.362;7.568;2022-11-25T03:27:59;3.60;;;1.70;;
51475;SDS011;37554;50.362;7.568;2022-11-25T03:30:25;2.33;;;1.42;;
51475;SDS011;37554;50.362;7.568;2022-11-25T03:32:52;3.17;;;2.00;;
51475;SDS011;37554;50.362;7.568;2022-11-25T03:35:17;2.97;;;1.60;;
51475;SDS011;37554;50.362;7.568;2022-11-25T03:37:43;3.00;;;1.70;;
51475;SDS011;37554;50.362;7.568;2022-11-25T03:40:10;3.08;;;1.52;;
51475;SDS011;37554;50.362;7.568;2022-11-25T03:42:37;2.63;;;1.60;;
51475;SDS011;37554;50.362;7.568;2022-11-25T03:45:03;3.70;;;1.80;;
51475;SDS011;37554;50.362;7.568;2022-11-25T03:47:30;3.17;;;1.80;;
51475;SDS011;37554;50.362;7.568;2022-11-25T03:49:55;1.75;;;1.15;;
51475;SDS011;37554;50.362;7.568;2022-11-25T03:52:21;3.28;;;1.50;;
51475;SDS011;37554;50.362;7.568;2022-11-25T03:54:47;4.22;;;1.90;;
51475;SDS011;37554;50.362;7.568;2022-11-25T03:57:12;3.60;;;1.92;;
51475;SDS011;37554;50.362;7.568;2022-11-25T03:59:38;2.28;;;1.45;;
51475;SDS011;37554;50.362;7.568;2022-11-25T04:02:03;3.42;;;1.80;;
51475;SDS011;37554;50.362;7.568;2022-11-25T04:04:29;2.80;;;1.45;;
51475;SDS011;37554;50.362;7.568;2022-11-25T04:06:55;2.40;;;1.35;;
51475;SDS011;37554;50.362;7.568;2022-11-25T04:09:20;3.35;;;1.50;;
51475;SDS011;37554;50.362;7.568;2022-11-25T04:11:46;3.00;;;1.73;;
51475;SDS011;37554;50.362;7.568;2022-11-25T04:14:30;2.75;;;1.70;;
51475;SDS011;37554;50.362;7.568;2022-11-25T04:16:56;2.97;;;1.38;;
51475;SDS011;37554;50.362;7.568;2022-11-25T04:19:21;2.88;;;1.30;;
51475;SDS011;37554;50.362;7.568;2022-11-25T04:21:47;2.70;;;1.70;;
51475;SDS011;37554;50.362;7.568;2022-11-25T04:24:13;3.17;;;1.45;;
51475;SDS011;37554;50.362;7.568;2022-11-25T04:26:39;2.65;;;1.42;;
51475;SDS011;37554;50.362;7.568;2022-11-25T04:29:04;3.58;;;1.52;;
51475;SDS011;37554;50.362;7.568;2022-11-25T04:31:30;3.75;;;1.48;;
51475;SDS011;37554;50.362;7.568;2022-11-25T04:33:56;2.58;;;1.40;;
51475;SDS011;37554;50.362;7.568;2022-11-25T04:36:21;3.05;;;1.60;;
51475;SDS011;37554;50.362;7.568;2022-11-25T04:38:47;2.70;;;1.48;;
51475;SDS011;37554;50.362;7.568;2022-11-25T04:41:13;2.92;;;1.50;;
51475;SDS011;37554;50.362;7.568;2022-11-25T04:43:38;3.83;;;1.48;;
51475;SDS011;37554;50.362;7.568;2022-11-25T04:46:04;2.63;;;1.30;;
51475;SDS011;37554;50.362;7.568;2022-11-25T04:48:30;2.85;;;1.48;;
51475;SDS011;37554;50.362;7.568;2022-11-25T04:50:56;2.08;;;1.20;;
51475;SDS011;37554;50.362;7.568;2022-11-25T04:53:21;2.30;;;1.33;;
51475;SDS011;37554;50.362;7.568;2022-11-25T04:55:47;3.03;;;1.52;;
51475;SDS011;37554;50.362;7.568;2022-11-25T04:58:12;2.55;;;1.42;;
51475;SDS011;37554;50.362;7.568;2022-11-25T05:00:38;4.22;;;1.48;;
51475;SDS011;37554;50.362;7.568;2022-11-25T05:03:04;2.65;;;1.58;;
51475;SDS011;37554;50.362;7.568;2022-11-25T05:05:30;3.63;;;1.50;;
51475;SDS011;37554;50.362;7.568;2022-11-25T05:07:56;2.15;;;1.10;;
51475;SDS011;37554;50.362;7.568;2022-11-25T05:10:21;3.08;;;1.52;;
51475;SDS011;37554;50.362;7.568;2022-11-25T05:12:47;3.90;;;1.40;;
51475;SDS011;37554;50.362;7.568;2022-11-25T05:15:12;2.83;;;1.38;;
51475;SDS011;37554;50.362;7.568;2022-11-25T05:17:38;3.85;;;1.40;;
51475;SDS011;37554;50.362;7.568;2022-11-25T05:20:04;2.55;;;1.25;;
51475;SDS011;37554;50.362;7.568;2022-11-25T05:22:31;3.28;;;1.38;;
51475;SDS011;37554;50.362;7.568;2022-11-25T05:24:58;3.65;;;1.50;;
51475;SDS011;37554;50.362;7.568;2022-11-25T05:27:24;2.38;;;1.48;;
51475;SDS011;37554;50.362;7.568;2022-11-25T05:29:50;2.88;;;1.38;;
51475;SDS011;37554;50.362;7.568;2022-11-25T05:32:16;2.03;;;1.25;;
51475;SDS011;37554;50.362;7.568;2022-11-25T05:34:42;3.72;;;1.83;;
51475;SDS011;37554;50.362;7.568;2022-11-25T05:37:09;3.15;;;1.23;;
51475;SDS011;37554;50.362;7.568;2022-11-25T05:39:36;4.22;;;1.70;;
51475;SDS011;37554;50.362;7.568;2022-11-25T05:42:03;6.22;;;1.92;;
51475;SDS011;37554;50.362;7.568;2022-11-25T05:44:29;3.90;;;1.60;;
51475;SDS011;37554;50.362;7.568;2022-11-25T05:46:55;6.65;;;2.13;;
51475;SDS011;37554;50.362;7.568;2022-11-25T05:49:20;4.28;;;1.85;;
51475;SDS011;37554;50.362;7.568;2022-11-25T05:51:46;6.70;;;1.90;;
51475;SDS011;37554;50.362;7.568;2022-11-25T05:54:12;3.10;;;1.60;;
51475;SDS011;37554;50.362;7.568;2022-11-25T05:56:38;6.38;;;2.00;;
51475;SDS011;37554;50.362;7.568;2022-11-25T05:59:05;4.07;;;1.63;;
51475;SDS011;37554;50.362;7.568;2022-11-25T06:01:31;3.85;;;2.10;;
51475;SDS011;37554;50.362;7.568;2022-11-25T06:04:00;4.03;;;1.55;;
51475;SDS011;37554;50.362;7.568;2022-11-25T06:06:27;5.80;;;2.05;;
51475;SDS011;37554;50.362;7.568;2022-11-25T06:08:53;5.07;;;2.28;;
51475;SDS011;37554;50.362;7.568;2022-11-25T06:11:18;3.10;;;1.50;;
51475;SDS011;37554;50.362;7.568;2022-11-25T06:13:44;3.17;;;1.63;;
51475;SDS011;37554;50.362;7.568;2022-11-25T06:16:10;4.63;;;1.77;;
51475;SDS011;37554;50.362;7.568;2022-11-25T06:18:38;5.20;;;2.20;;
51475;SDS011;37554;50.362;7.568;2022-11-25T06:21:04;6.45;;;2.28;;
51475;SDS011;37554;50.362;7.568;2022-11-25T06:23:31;6.43;;;2.03;;
51475;SDS011;37554;50.362;7.568;2022-11-25T06:26:04;4.82;;;2.03;;
51475;SDS011;37554;50.362;7.568;2022-11-25T06:28:38;5.03;;;2.33;;
51475;SDS011;37554;50.362;7.568;2022-11-25T06:31:05;5.68;;;2.33;;
51475;SDS011;37554;50.362;7.568;2022-11-25T06:33:32;5.53;;;2.20;;
51475;SDS011;37554;50.362;7.568;2022-11-25T06:35:58;7.55;;;3.20;;
51475;SDS011;37554;50.362;7.568;2022-11-25T06:38:26;10.45;;;4.18;;
51475;SDS011;37554;50.362;7.568;2022-11-25T06:40:52;21.38;;;6.82;;
51475;SDS011;37554;50.362;7.568;2022-11-25T06:43:17;20.40;;;6.07;;
51475;SDS011;37554;50.362;7.568;2022-11-25T06:45:43;17.52;;;5.97;;
51475;SDS011;37554;50.362;7.568;2022-11-25T06:48:08;16.65;;;6.63;;
51475;SDS011;37554;50.362;7.568;2022-11-25T06:50:34;15.93;;;5.50;;
51475;SDS011;37554;50.362;7.568;2022-11-25T06:53:00;16.83;;;5.55;;
51475;SDS011;37554;50.362;7.568;2022-11-25T06:55:26;17.35;;;4.95;;
51475;SDS011;37554;50.362;7.568;2022-11-25T06:57:51;13.32;;;5.60;;
51475;SDS011;37554;50.362;7.568;2022-11-25T07:00:17;15.20;;;5.03;;
51475;SDS011;37554;50.362;7.568;2022-11-25T07:02:43;10.32;;;5.10;;
51475;SDS011;37554;50.362;7.568;2022-11-25T07:05:09;14.45;;;4.72;;
51475;SDS011;37554;50.362;7.568;2022-11-25T07:07:34;12.30;;;4.93;;
51475;SDS011;37554;50.362;7.568;2022-11-25T07:10:00;13.18;;;4.88;;
51475;SDS011;37554;50.362;7.568;2022-11-25T07:12:26;17.33;;;4.78;;
51475;SDS011;37554;50.362;7.568;2022-11-25T07:14:51;14.60;;;4.85;;
51475;SDS011;37554;50.362;7.568;2022-11-25T07:17:17;12.13;;;4.78;;
51475;SDS011;37554;50.362;7.568;2022-11-25T07:19:42;9.70;;;4.57;;
51475;SDS011;37554;50.362;7.568;2022-11-25T07:22:09;10.88;;;4.07;;
51475;SDS011;37554;50.362;7.568;2022-11-25T07:24:35;10.65;;;4.50;;
51475;SDS011;37554;50.362;7.568;2022-11-25T07:27:00;12.20;;;5.22;;
51475;SDS011;37554;50.362;7.568;2022-11-25T07:29:29;11.65;;;4.22;;
51475;SDS011;37554;50.362;7.568;2022-11-25T07:31:55;9.75;;;4.03;;
51475;SDS011;37554;50.362;7.568;2022-11-25T07:34:20;12.00;;;4.50;;
51475;SDS011;37554;50.362;7.568;2022-11-25T07:36:47;9.30;;;4.13;;
51475;SDS011;37554;50.362;7.568;2022-11-25T07:39:15;10.68;;;4.45;;
51475;SDS011;37554;50.362;7.568;2022-11-25T07:41:43;9.38;;;4.82;;
51475;SDS011;37554;50.362;7.568;2022-11-25T07:44:10;9.57;;;4.15;;
51475;SDS011;37554;50.362;7.568;2022-11-25T07:46:41;12.60;;;4.50;;
51475;SDS011;37554;50.362;7.568;2022-11-25T07:49:10;10.18;;;3.83;;
51475;SDS011;37554;50.362;7.568;2022-11-25T07:51:37;8.40;;;4.35;;
51475;SDS011;37554;50.362;7.568;2022-11-25T07:54:09;6.82;;;3.80;;
51475;SDS011;37554;50.362;7.568;2022-11-25T07:56:37;12.75;;;4.25;;
51475;SDS011;37554;50.362;7.568;2022-11-25T07:59:04;9.80;;;4.07;;
51475;SDS011;37554;50.362;7.568;2022-11-25T08:01:31;9.57;;;4.13;;
51475;SDS011;37554;50.362;7.568;2022-11-25T08:03:56;8.52;;;4.05;;
51475;SDS011;37554;50.362;7.568;2022-11-25T08:06:24;9.85;;;4.18;;
51475;SDS011;37554;50.362;7.568;2022-11-25T08:08:52;6.75;;;3.47;;
51475;SDS011;37554;50.362;7.568;2022-11-25T08:11:22;8.10;;;4.05;;
51475;SDS011;37554;50.362;7.568;2022-11-25T08:13:54;8.15;;;3.63;;
51475;SDS011;37554;50.362;7.568;2022-11-25T08:16:22;8.70;;;4.13;;
51475;SDS011;37554;50.362;7.568;2022-11-25T08:18:50;6.38;;;3.70;;
51475;SDS011;37554;50.362;7.568;2022-11-25T08:21:16;6.22;;;3.40;;
51475;SDS011;37554;50.362;7.568;2022-11-25T08:23:43;8.68;;;3.97;;
51475;SDS011;37554;50.362;7.568;2022-11-25T08:26:21;8.38;;;4.10;;
51475;SDS011;37554;50.362;7.568;2022-11-25T08:28:50;10.20;;;4.20;;
51475;SDS011;37554;50.362;7.568;2022-11-25T08:31:18;7.43;;;3.92;;
51475;SDS011;37554;50.362;7.568;2022-11-25T08:33:45;8.70;;;3.50;;
51475;SDS011;37554;50.362;7.568;2022-11-25T08:36:12;10.40;;;3.75;;
51475;SDS011;37554;50.362;7.568;2022-11-25T08:38:39;9.93;;;3.78;;
51475;SDS011;37554;50.362;7.568;2022-11-25T08:41:13;11.30;;;3.95;;
51475;SDS011;37554;50.362;7.568;2022-11-25T08:43:44;7.80;;;3.60;;
51475;SDS011;37554;50.362;7.568;2022-11-25T08:46:11;4.60;;;2.72;;
51475;SDS011;37554;50.362;7.568;2022-11-25T08:48:39;7.85;;;3.13;;
51475;SDS011;37554;50.362;7.568;2022-11-25T08:51:06;6.75;;;3.03;;
51475;SDS011;37554;50.362;7.568;2022-11-25T08:53:34;5.97;;;3.10;;
51475;SDS011;37554;50.362;7.568;2022-11-25T08:56:01;6.82;;;3.40;;
51475;SDS011;37554;50.362;7.568;2022-11-25T08:58:27;6.38;;;3.10;;
51475;SDS011;37554;50.362;7.568;2022-11-25T09:00:53;6.80;;;3.15;;
51475;SDS011;37554;50.362;7.568;2022-11-25T09:03:18;6.57;;;2.75;;
51475;SDS011;37554;50.362;7.568;2022-11-25T09:05:44;6.07;;;2.63;;
51475;SDS011;37554;50.362;7.568;2022-11-25T09:08:10;6.93;;;3.53;;
51475;SDS011;37554;50.362;7.568;2022-11-25T09:10:37;6.15;;;2.67;;
51475;SDS011;37554;50.362;7.568;2022-11-25T09:13:03;6.07;;;2.60;;
51475;SDS011;37554;50.362;7.568;2022-11-25T09:15:29;3.83;;;2.63;;
51475;SDS011;37554;50.362;7.568;2022-11-25T09:17:56;5.50;;;3.13;;
51475;SDS011;37554;50.362;7.568;2022-11-25T09:20:27;10.05;;;2.90;;
51475;SDS011;37554;50.362;7.568;2022-11-25T09:22:53;5.63;;;3.08;;
51475;SDS011;37554;50.362;7.568;2022-11-25T09:25:19;5.53;;;2.85;;
51475;SDS011;37554;50.362;7.568;2022-11-25T09:27:46;6.50;;;3.15;;
51475;SDS011;37554;50.362;7.568;2022-11-25T09:30:11;4.65;;;2.88;;
51475;SDS011;37554;50.362;7.568;2022-11-25T09:32:37;3.78;;;2.20;;
51475;SDS011;37554;50.362;7.568;2022-11-25T09:35:03;4.75;;;2.40;;
51475;SDS011;37554;50.362;7.568;2022-11-25T09:37:29;5.03;;;2.65;;
51475;SDS011;37554;50.362;7.568;2022-11-25T09:39:54;5.07;;;2.50;;
51475;SDS011;37554;50.362;7.568;2022-11-25T09:42:33;4.00;;;2.72;;
51475;SDS011;37554;50.362;7.568;2022-11-25T09:45:32;4.40;;;2.30;;
51475;SDS011;37554;50.362;7.568;2022-11-25T09:48:42;3.45;;;2.30;;
51475;SDS011;37554;50.362;7.568;2022-11-25T09:54:43;4.90;;;2.50;;
51475;SDS011;37554;50.362;7.568;2022-11-25T09:57:43;3.60;;;2.17;;
51475;SDS011;37554;50.362;7.568;2022-11-25T10:00:31;5.07;;;2.25;;
51475;SDS011;37554;50.362;7.568;2022-11-25T10:03:12;3.78;;;2.20;;
51475;SDS011;37554;50.362;7.568;2022-11-25T10:05:45;4.18;;;2.40;;
51475;SDS011;37554;50.362;7.568;2022-11-25T10:08:24;4.53;;;2.15;;
51475;SDS011;37554;50.362;7.568;2022-11-25T10:11:01;5.03;;;2.50;;
51475;SDS011;37554;50.362;7.568;2022-11-25T10:13:57;3.97;;;2.42;;
51475;SDS011;37554;50.362;7.568;2022-11-25T10:16:56;4.80;;;2.30;;
51475;SDS011;37554;50.362;7.568;2022-11-25T10:24:48;4.47;;;2.20;;
51475;SDS011;37554;50.362;7.568;2022-11-25T10:27:23;4.43;;;2.38;;
51475;SDS011;37554;50.362;7.568;2022-11-25T10:30:05;5.32;;;2.22;;
51475;SDS011;37554;50.362;7.568;2022-11-25T10:32:44;4.22;;;2.20;;
51475;SDS011;37554;50.362;7.568;2022-11-25T10:38:01;3.90;;;2.10;;
51475;SDS011;37554;50.362;7.568;2022-11-25T10:40:29;4.97;;;1.92;;
51475;SDS011;37554;50.362;7.568;2022-11-25T10:42:55;5.57;;;2.38;;
51475;SDS011;37554;50.362;7.568;2022-11-25T10:45:21;6.45;;;2.17;;
51475;SDS011;37554;50.362;7.568;2022-11-25T10:48:05;4.45;;;2.05;;
51475;SDS011;37554;50.362;7.568;2022-11-25T10:53:34;2.95;;;1.83;;
51475;SDS011;37554;50.362;7.568;2022-11-25T10:56:16;3.15;;;1.83;;
51475;SDS011;37554;50.362;7.568;2022-11-25T10:58:42;3.55;;;1.70;;
51475;SDS011;37554;50.362;7.568;2022-11-25T11:01:13;7.43;;;1.90;;
51475;SDS011;37554;50.362;7.568;2022-11-25T11:04:05;3.42;;;1.73;;
51475;SDS011;37554;50.362;7.568;2022-11-25T11:06:41;3.97;;;1.95;;
51475;SDS011;37554;50.362;7.568;2022-11-25T11:11:55;7.25;;;2.00;;
51475;SDS011;37554;50.362;7.568;2022-11-25T11:14:21;3.83;;;2.08;;
51475;SDS011;37554;50.362;7.568;2022-11-25T11:16:53;3.10;;;1.90;;
51475;SDS011;37554;50.362;7.568;2022-11-25T11:19:27;3.38;;;1.73;;
51475;SDS011;37554;50.362;7.568;2022-11-25T11:21:54;5.88;;;2.20;;
51475;SDS011;37554;50.362;7.568;2022-11-25T11:24:22;4.32;;;1.33;;
51475;SDS011;37554;50.362;7.568;2022-11-25T11:27:05;6.97;;;1.88;;
51475;SDS011;37554;50.362;7.568;2022-11-25T11:29:38;3.60;;;1.48;;
51475;SDS011;37554;50.362;7.568;2022-11-25T11:32:04;2.33;;;1.40;;
51475;SDS011;37554;50.362;7.568;2022-11-25T11:34:35;4.55;;;1.88;;
51475;SDS011;37554;50.362;7.568;2022-11-25T11:37:32;3.90;;;1.92;;
51475;SDS011;37554;50.362;7.568;2022-11-25T11:53:42;2.60;;;1.35;;
51475;SDS011;37554;50.362;7.568;2022-11-25T11:56:32;3.08;;;1.42;;
51475;SDS011;37554;50.362;7.568;2022-11-25T12:06:55;2.10;;;1.60;;
51475;SDS011;37554;50.362;7.568;2022-11-25T12:09:22;3.05;;;1.60;;
51475;SDS011;37554;50.362;7.568;2022-11-25T12:11:51;2.05;;;1.05;;
51475;SDS011;37554;50.362;7.568;2022-11-25T12:17:08;2.42;;;1.40;;
51475;SDS011;37554;50.362;7.568;2022-11-25T12:19:57;1.85;;;0.98;;
51475;SDS011;37554;50.362;7.568;2022-11-25T12:22:33;3.55;;;1.27;;
51475;SDS011;37554;50.362;7.568;2022-11-25T12:27:43;2.58;;;1.38;;
51475;SDS011;37554;50.362;7.568;2022-11-25T12:30:18;2.85;;;1.30;;
51475;SDS011;37554;50.362;7.568;2022-11-25T12:32:48;2.60;;;1.27;;
51475;SDS011;37554;50.362;7.568;2022-11-25T12:38:24;1.88;;;1.08;;
51475;SDS011;37554;50.362;7.568;2022-11-25T12:40:53;2.25;;;1.15;;
51475;SDS011;37554;50.362;7.568;2022-11-25T12:48:57;3.83;;;1.30;;
51475;SDS011;37554;50.362;7.568;2022-11-25T13:11:10;2.67;;;1.15;;
51475;SDS011;37554;50.362;7.568;2022-11-25T13:16:23;3.55;;;1.58;;
51475;SDS011;37554;50.362;7.568;2022-11-25T13:18:50;2.90;;;1.30;;
51475;SDS011;37554;50.362;7.568;2022-11-25T13:21:17;2.63;;;1.60;;
51475;SDS011;37554;50.362;7.568;2022-11-25T13:23:47;3.05;;;1.60;;
51475;SDS011;37554;50.362;7.568;2022-11-25T13:32:23;3.33;;;1.17;;
51475;SDS011;37554;50.362;7.568;2022-11-25T13:34:49;3.38;;;1.27;;
51475;SDS011;37554;50.362;7.568;2022-11-25T13:37:36;3.35;;;1.27;;
51475;SDS011;37554;50.362;7.568;2022-11-25T13:40:26;3.03;;;1.58;;
51475;SDS011;37554;50.362;7.568;2022-11-25T13:43:02;2.80;;;1.02;;
51475;SDS011;37554;50.362;7.568;2022-11-25T13:45:40;4.75;;;1.13;;
51475;SDS011;37554;50.362;7.568;2022-11-25T13:50:46;1.75;;;1.00;;
51475;SDS011;37554;50.362;7.568;2022-11-25T13:53:23;2.90;;;1.40;;
51475;SDS011;37554;50.362;7.568;2022-11-25T13:56:13;2.60;;;1.15;;
51475;SDS011;37554;50.362;7.568;2022-11-25T13:58:39;2.42;;;1.00;;
51475;SDS011;37554;50.362;7.568;2022-11-25T14:01:33;3.22;;;1.30;;
51475;SDS011;37554;50.362;7.568;2022-11-25T14:03:59;2.15;;;1.25;;
51475;SDS011;37554;50.362;7.568;2022-11-25T14:09:40;3.97;;;1.00;;
51475;SDS011;37554;50.362;7.568;2022-11-25T14:12:26;3.03;;;1.10;;
51475;SDS011;37554;50.362;7.568;2022-11-25T14:15:09;2.15;;;1.10;;
51475;SDS011;37554;50.362;7.568;2022-11-25T14:21:05;2.85;;;1.10;;
51475;SDS011;37554;50.362;7.568;2022-11-25T14:23:43;2.67;;;0.98;;
51475;SDS011;37554;50.362;7.568;2022-11-25T14:26:31;2.60;;;1.20;;
51475;SDS011;37554;50.362;7.568;2022-11-25T14:29:08;2.90;;;1.25;;
51475;SDS011;37554;50.362;7.568;2022-11-25T14:31:46;1.63;;;0.90;;
51475;SDS011;37554;50.362;7.568;2022-11-25T14:36:52;3.17;;;0.93;;
51475;SDS011;37554;50.362;7.568;2022-11-25T14:41:54;2.35;;;0.88;;
51475;SDS011;37554;50.362;7.568;2022-11-25T14:47:11;3.10;;;0.98;;
51475;SDS011;37554;50.362;7.568;2022-11-25T14:49:56;2.13;;;1.00;;
51475;SDS011;37554;50.362;7.568;2022-11-25T14:54:51;2.92;;;0.93;;
51475;SDS011;37554;50.362;7.568;2022-11-25T14:57:22;2.08;;;1.10;;
51475;SDS011;37554;50.362;7.568;2022-11-25T14:59:53;3.63;;;1.08;;
51475;SDS011;37554;50.362;7.568;2022-11-25T15:02:22;3.35;;;1.00;;
51475;SDS011;37554;50.362;7.568;2022-11-25T15:05:00;2.30;;;1.00;;
51475;SDS011;37554;50.362;7.568;2022-11-25T15:07:31;1.83;;;1.00;;
51475;SDS011;37554;50.362;7.568;2022-11-25T15:09:57;2.28;;;1.00;;
51475;SDS011;37554;50.362;7.568;2022-11-25T15:12:24;1.40;;;0.80;;
51475;SDS011;37554;50.362;7.568;2022-11-25T15:14:55;4.50;;;1.00;;
51475;SDS011;37554;50.362;7.568;2022-11-25T15:17:23;3.28;;;1.15;;
51475;SDS011;37554;50.362;7.568;2022-11-25T15:19:54;2.88;;;1.27;;
51475;SDS011;37554;50.362;7.568;2022-11-25T15:22:23;2.55;;;0.80;;
51475;SDS011;37554;50.362;7.568;2022-11-25T15:24:49;1.52;;;0.82;;
51475;SDS011;37554;50.362;7.568;2022-11-25T15:27:18;3.47;;;0.93;;
51475;SDS011;37554;50.362;7.568;2022-11-25T15:29:51;3.05;;;1.00;;
51475;SDS011;37554;50.362;7.568;2022-11-25T15:32:25;2.55;;;1.08;;
51475;SDS011;37554;50.362;7.568;2022-11-25T15:34:57;1.67;;;0.80;;
51475;SDS011;37554;50.362;7.568;2022-11-25T15:37:24;3.95;;;1.20;;
51475;SDS011;37554;50.362;7.568;2022-11-25T15:43:03;3.05;;;1.15;;
51475;SDS011;37554;50.362;7.568;2022-11-25T15:45:35;2.20;;;1.00;;
51475;SDS011;37554;50.362;7.568;2022-11-25T15:48:16;1.23;;;0.70;;
51475;SDS011;37554;50.362;7.568;2022-11-25T15:51:01;2.78;;;0.73;;
51475;SDS011;37554;50.362;7.568;2022-11-25T15:53:29;1.10;;;0.70;;
51475;SDS011;37554;50.362;7.568;2022-11-25T15:56:00;2.80;;;0.93;;
51475;SDS011;37554;50.362;7.568;2022-11-25T15:58:29;1.65;;;0.80;;
51475;SDS011;37554;50.362;7.568;2022-11-25T16:01:05;2.13;;;1.10;;
51475;SDS011;37554;50.362;7.568;2022-11-25T16:03:51;3.08;;;1.00;;
51475;SDS011;37554;50.362;7.568;2022-11-25T16:06:26;2.15;;;0.85;;
51475;SDS011;37554;50.362;7.568;2022-11-25T16:08:56;1.92;;;1.00;;
51475;SDS011;37554;50.362;7.568;2022-11-25T16:11:27;2.58;;;0.68;;
51475;SDS011;37554;50.362;7.568;2022-11-25T16:14:17;2.35;;;1.08;;
51475;SDS011;37554;50.362;7.568;2022-11-25T16:16:49;1.50;;;0.90;;
51475;SDS011;37554;50.362;7.568;2022-11-25T16:19:19;1.40;;;0.65;;
51475;SDS011;37554;50.362;7.568;2022-11-25T16:21:53;1.90;;;0.80;;
51475;SDS011;37554;50.362;7.568;2022-11-25T16:24:37;3.05;;;0.90;;
51475;SDS011;37554;50.362;7.568;2022-11-25T16:27:17;1.75;;;0.60;;
51475;SDS011;37554;50.362;7.568;2022-11-25T16:32:17;1.48;;;0.93;;
51475;SDS011;37554;50.362;7.568;2022-11-25T16:34:47;2.40;;;1.02;;
51475;SDS011;37554;50.362;7.568;2022-11-25T16:37:13;1.77;;;0.90;;
51475;SDS011;37554;50.362;7.568;2022-11-25T16:39:39;2.78;;;0.80;;
51475;SDS011;37554;50.362;7.568;2022-11-25T16:42:05;1.80;;;1.10;;
51475;SDS011;37554;50.362;7.568;2022-11-25T16:44:34;1.08;;;0.70;;
51475;SDS011;37554;50.362;7.568;2022-11-25T16:47:01;1.98;;;0.85;;